createdAt,value
2023-03-21T00:00:56.541Z,7.50
2023-03-21T00:01:56.522Z,7.45
2023-03-21T00:02:56.629Z,7.40
2023-03-21T00:03:56.635Z,7.39
2023-03-21T00:04:58.501Z,7.38
2023-03-21T00:05:56.711Z,7.36
2023-03-21T00:06:56.695Z,7.35
2023-03-21T00:07:56.770Z,7.39
2023-03-21T00:08:56.868Z,7.38
2023-03-21T00:10:04.884Z,7.39
2023-03-21T00:10:57.033Z,7.39
2023-03-21T00:11:57.011Z,7.39
2023-03-21T00:12:57.072Z,7.39
2023-03-21T00:13:57.175Z,7.33
2023-03-21T00:14:57.220Z,7.31
2023-03-21T00:16:04.741Z,7.32
2023-03-21T00:16:57.270Z,7.23
2023-03-21T00:17:57.341Z,7.24
2023-03-21T00:18:57.427Z,7.20
2023-03-21T00:19:57.493Z,7.18
2023-03-21T00:21:15.793Z,7.20
2023-03-21T00:22:07.376Z,7.18
2023-03-21T00:22:57.719Z,7.13
2023-03-21T00:23:57.790Z,7.10
2023-03-21T00:24:57.861Z,7.00
2023-03-21T00:25:57.932Z,7.10
2023-03-21T00:27:15.897Z,7.15
2023-03-21T00:28:08.022Z,7.17
2023-03-21T00:28:58.071Z,7.21
2023-03-21T00:29:58.026Z,7.14
2023-03-21T00:30:58.109Z,7.17
2023-03-21T00:31:58.228Z,7.20
2023-03-21T00:33:01.528Z,7.20
2023-03-21T00:33:58.296Z,7.17
2023-03-21T00:35:16.568Z,7.24
2023-03-21T00:36:05.005Z,7.23
2023-03-21T00:36:58.428Z,7.23
2023-03-21T00:37:58.406Z,7.11
2023-03-21T00:38:58.470Z,7.07
2023-03-21T00:39:58.602Z,7.06
2023-03-21T00:41:04.753Z,7.00
2023-03-21T00:41:58.679Z,7.00
2023-03-21T00:42:58.661Z,6.93
2023-03-21T00:43:58.766Z,6.87
2023-03-21T00:44:58.731Z,6.82
2023-03-21T00:45:58.819Z,6.87
2023-03-21T00:47:06.985Z,6.88
2023-03-21T00:47:58.991Z,6.92
2023-03-21T00:48:58.906Z,6.82
2023-03-21T00:49:58.969Z,6.95
2023-03-21T00:50:59.079Z,6.89
2023-03-21T00:52:08.698Z,6.85
2023-03-21T00:52:59.110Z,6.84
2023-03-21T00:54:00.181Z,6.78
2023-03-21T00:54:59.210Z,6.82
2023-03-21T00:55:59.299Z,6.78
2023-03-21T00:56:59.290Z,6.77
2023-03-21T00:58:02.083Z,6.87
2023-03-21T00:58:59.248Z,6.72
2023-03-21T00:59:59.332Z,6.72
2023-03-21T01:00:59.481Z,6.69
2023-03-21T01:01:59.535Z,6.67
2023-03-21T01:03:08.597Z,6.67
2023-03-21T01:03:59.600Z,6.82
2023-03-21T01:04:59.662Z,6.87
2023-03-21T01:05:59.730Z,6.81
2023-03-21T01:06:59.842Z,6.79
2023-03-21T01:07:59.844Z,6.81
2023-03-21T01:08:59.933Z,6.88
2023-03-21T01:09:59.988Z,7.02
2023-03-21T01:11:00.112Z,7.02
2023-03-21T01:12:00.163Z,7.00
2023-03-21T01:13:01.126Z,7.10
2023-03-21T01:14:14.722Z,7.10
2023-03-21T01:15:00.218Z,7.02
2023-03-21T01:16:00.352Z,7.14
2023-03-21T01:17:00.371Z,7.14
2023-03-21T01:18:00.449Z,7.18
2023-03-21T01:19:01.152Z,7.15
2023-03-21T01:20:00.541Z,7.14
2023-03-21T01:21:00.627Z,7.03
2023-03-21T01:22:00.727Z,6.99
2023-03-21T01:23:00.687Z,6.97
2023-03-21T01:24:00.768Z,6.95
2023-03-21T01:25:19.184Z,6.88
2023-03-21T01:26:00.950Z,6.89
2023-03-21T01:27:00.950Z,6.93
2023-03-21T01:28:00.917Z,6.93
2023-03-21T01:29:00.989Z,6.95
2023-03-21T01:30:01.081Z,6.93
2023-03-21T01:31:01.168Z,6.93
2023-03-21T01:32:01.247Z,6.96
2023-03-21T01:33:01.321Z,6.96
2023-03-21T01:34:01.350Z,7.02
2023-03-21T01:35:01.450Z,6.93
2023-03-21T01:36:12.123Z,6.95
2023-03-21T01:37:01.532Z,6.92
2023-03-21T01:38:01.543Z,6.89
2023-03-21T01:39:01.521Z,6.89
2023-03-21T01:40:01.576Z,6.88
2023-03-21T01:41:06.127Z,6.84
2023-03-21T01:42:01.743Z,6.81
2023-03-21T01:43:01.714Z,6.81
2023-03-21T01:44:01.791Z,6.87
2023-03-21T01:45:01.873Z,6.75
2023-03-21T01:46:01.997Z,6.81
2023-03-21T01:47:17.445Z,6.78
2023-03-21T01:48:02.033Z,6.82
2023-03-21T01:49:02.045Z,6.78
2023-03-21T01:50:02.106Z,6.72
2023-03-21T01:51:02.203Z,6.72
2023-03-21T01:52:11.460Z,6.66
2023-03-21T01:53:02.216Z,6.62
2023-03-21T01:54:02.188Z,6.60
2023-03-21T01:55:02.257Z,6.66
2023-03-21T01:56:02.346Z,6.66
2023-03-21T01:57:02.443Z,6.66
2023-03-21T01:58:06.498Z,6.60
2023-03-21T01:59:02.406Z,6.59
2023-03-21T02:00:02.509Z,6.59
2023-03-21T02:01:02.515Z,6.57
2023-03-21T02:02:02.531Z,6.72
2023-03-21T02:03:11.707Z,6.77
2023-03-21T02:04:02.608Z,6.87
2023-03-21T02:05:02.764Z,6.85
2023-03-21T02:06:02.660Z,6.92
2023-03-21T02:07:02.726Z,6.88
2023-03-21T02:08:02.743Z,6.93
2023-03-21T02:09:02.811Z,6.99
2023-03-21T02:10:02.876Z,6.92
2023-03-21T02:11:02.970Z,6.97
2023-03-21T02:12:03.027Z,7.07
2023-03-21T02:13:03.106Z,7.07
2023-03-21T02:14:06.620Z,7.13
2023-03-21T02:15:03.118Z,7.15
2023-03-21T02:16:03.207Z,7.11
2023-03-21T02:17:03.275Z,7.06
2023-03-21T02:18:03.384Z,7.00
2023-03-21T02:19:03.347Z,7.03
2023-03-21T02:20:03.440Z,7.03
2023-03-21T02:21:03.416Z,7.02
2023-03-21T02:22:03.514Z,7.15
2023-03-21T02:23:03.516Z,7.28
2023-03-21T02:24:04.506Z,7.28
2023-03-21T02:25:08.305Z,7.36
2023-03-21T02:26:03.656Z,7.38
2023-03-21T02:27:04.694Z,7.47
2023-03-21T02:28:03.738Z,7.51
2023-03-21T02:29:03.715Z,7.47
2023-03-21T02:30:03.810Z,7.48
2023-03-21T02:31:03.929Z,7.50
2023-03-21T02:32:16.477Z,7.47
2023-03-21T02:33:04.016Z,7.45
2023-03-21T02:34:03.988Z,7.40
2023-03-21T02:35:04.039Z,7.45
2023-03-21T02:36:13.534Z,7.51
2023-03-21T02:37:04.187Z,7.50
2023-03-21T02:38:04.308Z,7.60
2023-03-21T02:39:04.270Z,7.58
2023-03-21T02:40:04.362Z,7.53
2023-03-21T02:41:10.087Z,7.50
2023-03-21T02:42:04.407Z,7.48
2023-03-21T02:43:07.210Z,7.50
2023-03-21T02:44:04.408Z,7.45
2023-03-21T02:45:04.487Z,7.53
2023-03-21T02:46:04.639Z,7.56
2023-03-21T02:47:06.230Z,7.53
2023-03-21T02:48:04.771Z,7.57
2023-03-21T02:49:04.800Z,7.56
2023-03-21T02:50:04.694Z,7.56
2023-03-21T02:51:04.775Z,7.45
2023-03-21T02:52:15.340Z,7.56
2023-03-21T02:53:04.958Z,7.47
2023-03-21T02:54:27.843Z,7.39
2023-03-21T02:55:05.048Z,7.32
2023-03-21T02:56:05.029Z,7.18
2023-03-21T02:57:05.129Z,7.21
2023-03-21T02:58:12.798Z,7.20
2023-03-21T02:59:05.169Z,7.15
2023-03-21T03:00:15.781Z,7.10
2023-03-21T03:01:05.358Z,7.13
2023-03-21T03:02:05.349Z,7.15
2023-03-21T03:03:09.943Z,6.99
2023-03-21T03:04:05.522Z,6.96
2023-03-21T03:05:14.763Z,6.89
2023-03-21T03:06:05.582Z,6.93
2023-03-21T03:07:05.650Z,6.85
2023-03-21T03:08:05.722Z,7.00
2023-03-21T03:09:05.808Z,7.05
2023-03-21T03:10:05.893Z,7.02
2023-03-21T03:11:06.971Z,6.97
2023-03-21T03:12:05.998Z,6.96
2023-03-21T03:13:06.074Z,6.93
2023-03-21T03:14:25.159Z,6.88
2023-03-21T03:15:06.142Z,6.78
2023-03-21T03:16:06.272Z,6.78
2023-03-21T03:17:06.261Z,6.88
2023-03-21T03:18:06.341Z,6.84
2023-03-21T03:19:06.465Z,6.79
2023-03-21T03:20:15.500Z,6.85
2023-03-21T03:21:06.522Z,6.92
2023-03-21T03:22:06.523Z,6.97
2023-03-21T03:23:06.589Z,7.07
2023-03-21T03:24:06.683Z,7.14
2023-03-21T03:25:18.614Z,7.10
2023-03-21T03:26:06.726Z,7.13
2023-03-21T03:27:06.815Z,7.20
2023-03-21T03:28:06.883Z,7.29
2023-03-21T03:29:07.007Z,7.33
2023-03-21T03:30:06.969Z,7.38
2023-03-21T03:31:09.601Z,7.33
2023-03-21T03:32:07.171Z,7.35
2023-03-21T03:33:07.168Z,7.24
2023-03-21T03:34:07.318Z,7.24
2023-03-21T03:35:07.282Z,7.23
2023-03-21T03:36:09.234Z,7.29
2023-03-21T03:37:07.378Z,7.33
2023-03-21T03:38:07.356Z,7.39
2023-03-21T03:39:07.470Z,7.36
2023-03-21T03:40:07.448Z,7.35
2023-03-21T03:41:07.536Z,7.23
2023-03-21T03:42:21.647Z,7.15
2023-03-21T03:43:07.579Z,7.11
2023-03-21T03:44:07.658Z,7.14
2023-03-21T03:45:07.752Z,7.10
2023-03-21T03:46:07.872Z,7.10
2023-03-21T03:47:07.881Z,7.13
2023-03-21T03:48:08.011Z,7.15
2023-03-21T03:49:07.895Z,7.00
2023-03-21T03:50:07.988Z,7.06
2023-03-21T03:51:08.061Z,7.02
2023-03-21T03:52:08.161Z,6.99
2023-03-21T03:53:17.734Z,7.02
2023-03-21T03:54:08.176Z,7.10
2023-03-21T03:55:08.287Z,7.11
2023-03-21T03:56:08.255Z,7.14
2023-03-21T03:57:08.328Z,7.20
2023-03-21T03:58:21.175Z,7.35
2023-03-21T03:59:08.454Z,7.38
2023-03-21T04:00:08.556Z,7.28
2023-03-21T04:01:08.543Z,7.15
2023-03-21T04:02:08.684Z,7.15
2023-03-21T04:03:08.840Z,7.10
2023-03-21T04:04:13.232Z,7.21
2023-03-21T04:05:08.823Z,7.23
2023-03-21T04:06:08.898Z,7.17
2023-03-21T04:07:08.973Z,7.05
2023-03-21T04:08:09.072Z,7.00
2023-03-21T04:09:19.337Z,6.97
2023-03-21T04:10:09.229Z,6.99
2023-03-21T04:11:09.204Z,6.97
2023-03-21T04:12:09.261Z,6.99
2023-03-21T04:13:09.360Z,6.95
2023-03-21T04:14:09.328Z,6.89
2023-03-21T04:15:10.986Z,6.81
2023-03-21T04:16:09.499Z,6.75
2023-03-21T04:17:09.493Z,6.84
2023-03-21T04:18:09.552Z,6.89
2023-03-21T04:19:10.657Z,6.92
2023-03-21T04:20:13.968Z,6.84
2023-03-21T04:21:09.695Z,7.00
2023-03-21T04:22:09.788Z,6.97
2023-03-21T04:23:09.853Z,7.00
2023-03-21T04:24:09.953Z,6.93
2023-03-21T04:25:09.981Z,6.89
2023-03-21T04:26:09.966Z,6.89
2023-03-21T04:27:10.034Z,6.85
2023-03-21T04:28:10.113Z,6.87
2023-03-21T04:29:10.205Z,6.92
2023-03-21T04:30:10.348Z,6.95
2023-03-21T04:31:22.685Z,6.84
2023-03-21T04:32:10.427Z,7.02
2023-03-21T04:33:10.404Z,6.97
2023-03-21T04:34:10.481Z,6.95
2023-03-21T04:35:10.584Z,6.89
2023-03-21T04:36:10.590Z,6.95
2023-03-21T04:37:10.671Z,7.00
2023-03-21T04:38:10.740Z,6.99
2023-03-21T04:39:10.858Z,6.99
2023-03-21T04:40:10.862Z,6.96
2023-03-21T04:41:10.890Z,6.93
2023-03-21T04:42:10.963Z,6.95
2023-03-21T04:43:10.968Z,6.96
2023-03-21T04:44:11.037Z,7.07
2023-03-21T04:45:11.150Z,7.02
2023-03-21T04:46:11.133Z,6.95
2023-03-21T04:47:11.122Z,6.99
2023-03-21T04:48:11.276Z,7.05
2023-03-21T04:49:11.211Z,7.20
2023-03-21T04:50:11.183Z,7.23
2023-03-21T04:51:11.279Z,7.18
2023-03-21T04:52:11.249Z,7.14
2023-03-21T04:53:11.340Z,7.11
2023-03-21T09:52:48.411Z,15.03
2023-03-21T09:53:48.457Z,15.19
2023-03-21T09:54:48.507Z,15.29
2023-03-21T09:55:48.536Z,15.42
2023-03-21T09:56:48.570Z,15.36
2023-03-21T09:57:48.614Z,15.39
2023-03-21T09:58:48.639Z,15.49
2023-03-21T09:59:48.670Z,15.47
2023-03-21T10:00:48.746Z,15.29
2023-03-21T10:01:48.809Z,14.88
2023-03-21T10:02:48.821Z,14.60
2023-03-21T10:03:48.861Z,14.55
2023-03-21T10:04:49.146Z,14.78
2023-03-21T10:05:50.092Z,14.88
2023-03-21T10:06:48.992Z,14.73
2023-03-21T10:07:49.051Z,14.54
2023-03-21T10:08:49.081Z,14.78
2023-03-21T10:09:49.172Z,15.00
2023-03-21T10:10:49.211Z,15.10
2023-03-21T10:11:49.278Z,14.89
2023-03-21T10:12:49.333Z,14.58
2023-03-21T10:13:49.413Z,14.62
2023-03-21T10:14:49.453Z,14.69
2023-03-21T10:15:49.484Z,14.77
2023-03-21T10:16:49.624Z,15.07
2023-03-21T10:17:49.594Z,15.15
2023-03-21T10:18:49.624Z,15.25
2023-03-21T10:19:49.878Z,15.47
2023-03-21T10:20:49.696Z,15.54
2023-03-21T10:22:01.310Z,15.52
2023-03-21T10:22:49.769Z,15.62
2023-03-21T10:23:49.800Z,15.68
2023-03-21T10:24:49.850Z,15.37
2023-03-21T10:25:49.934Z,15.24
2023-03-21T10:26:49.889Z,15.02
2023-03-21T10:27:49.929Z,15.10
2023-03-21T10:28:53.097Z,15.27
2023-03-21T10:29:49.988Z,15.18
2023-03-21T10:30:50.020Z,15.31
2023-03-21T10:31:50.178Z,15.19
2023-03-21T10:32:50.150Z,15.25
2023-03-21T10:33:50.171Z,15.27
2023-03-21T10:34:50.219Z,15.46
2023-03-21T10:35:50.321Z,15.62
2023-03-21T10:36:50.384Z,15.73
2023-03-21T10:37:50.362Z,15.67
2023-03-21T10:38:50.392Z,15.35
2023-03-21T10:39:50.408Z,15.15
2023-03-21T10:40:50.421Z,14.92
2023-03-21T10:41:50.453Z,14.99
2023-03-21T10:42:50.465Z,15.11
2023-03-21T10:43:50.490Z,15.15
2023-03-21T10:44:50.493Z,15.25
2023-03-21T10:45:50.641Z,15.43
2023-03-21T10:46:50.777Z,15.61
2023-03-21T10:47:50.898Z,15.91
2023-03-21T10:48:50.926Z,16.17
2023-03-21T10:50:06.890Z,16.32
2023-03-21T10:50:50.849Z,16.36
2023-03-21T10:51:50.883Z,16.38
2023-03-21T10:52:50.930Z,16.35
2023-03-21T10:53:50.962Z,15.92
2023-03-21T10:54:50.984Z,15.73
2023-03-21T10:55:50.994Z,15.58
2023-03-21T10:56:51.002Z,15.57
2023-03-21T10:57:51.032Z,15.97
2023-03-21T10:58:51.044Z,16.24
2023-03-21T10:59:51.053Z,16.38
2023-03-21T11:00:51.084Z,16.38
2023-03-21T11:01:51.074Z,16.43
2023-03-21T11:02:51.134Z,16.43
2023-03-21T11:03:51.106Z,16.53
2023-03-21T11:04:51.117Z,16.60
2023-03-21T11:05:51.127Z,16.68
2023-03-21T11:06:51.156Z,16.53
2023-03-21T11:07:51.182Z,16.36
2023-03-21T11:08:51.189Z,16.02
2023-03-21T11:09:53.637Z,15.95
2023-03-21T11:10:51.247Z,16.00
2023-03-21T11:11:51.267Z,16.09
2023-03-21T11:12:51.316Z,16.26
2023-03-21T11:13:51.349Z,16.69
2023-03-21T11:14:51.361Z,16.96
2023-03-21T11:15:51.379Z,16.75
2023-03-21T11:16:51.465Z,16.66
2023-03-21T11:17:51.450Z,16.50
2023-03-21T11:18:51.465Z,16.26
2023-03-21T11:19:51.481Z,16.38
2023-03-21T11:20:51.502Z,16.41
2023-03-21T11:21:51.545Z,16.41
2023-03-21T11:22:51.544Z,16.64
2023-03-21T11:23:51.589Z,16.99
2023-03-21T11:24:51.602Z,17.42
2023-03-21T11:25:51.626Z,17.31
2023-03-21T11:26:51.654Z,17.22
2023-03-21T11:27:51.677Z,17.15
2023-03-21T11:28:51.716Z,17.11
2023-03-21T11:29:51.735Z,17.11
2023-03-21T11:30:51.812Z,17.19
2023-03-21T11:31:51.757Z,17.22
2023-03-21T11:32:51.768Z,17.08
2023-03-21T11:33:51.819Z,16.61
2023-03-21T11:34:51.849Z,16.53
2023-03-21T11:35:51.904Z,16.47
2023-03-21T11:36:51.916Z,16.39
2023-03-21T11:37:51.929Z,16.16
2023-03-21T11:38:51.969Z,16.20
2023-03-21T11:39:51.978Z,16.23
2023-03-21T11:40:51.988Z,16.35
2023-03-21T11:41:52.029Z,16.47
2023-03-21T11:42:52.031Z,16.51
2023-03-21T11:43:52.040Z,16.41
2023-03-21T11:44:52.108Z,16.65
2023-03-21T11:45:52.141Z,16.78
2023-03-21T11:46:53.977Z,16.91
2023-03-21T11:47:52.206Z,16.74
2023-03-21T11:48:52.160Z,16.83
2023-03-21T11:49:58.394Z,16.90
2023-03-21T11:50:52.277Z,16.71
2023-03-21T11:51:52.291Z,16.43
2023-03-21T11:52:52.312Z,16.56
2023-03-21T11:53:52.345Z,16.47
2023-03-21T11:54:52.370Z,16.69
2023-03-21T11:55:52.379Z,16.89
2023-03-21T11:56:52.402Z,17.19
2023-03-21T11:57:52.438Z,17.04
2023-03-21T11:58:52.494Z,16.79
2023-03-21T11:59:52.558Z,16.74
2023-03-21T12:00:52.550Z,16.78
2023-03-21T12:01:52.551Z,16.86
2023-03-21T12:02:52.618Z,16.89
2023-03-21T12:03:54.653Z,16.79
2023-03-21T12:04:52.682Z,16.71
2023-03-21T12:05:52.692Z,16.54
2023-03-21T12:06:52.718Z,16.33
2023-03-21T12:07:52.737Z,16.36
2023-03-21T12:08:52.750Z,16.31
2023-03-21T12:09:52.827Z,16.39
2023-03-21T12:10:52.851Z,16.41
2023-03-21T12:11:52.893Z,16.26
2023-03-21T12:12:52.933Z,16.17
2023-03-21T12:13:52.973Z,16.15
2023-03-21T12:14:53.034Z,16.20
2023-03-21T12:15:55.365Z,16.24
2023-03-21T12:16:53.096Z,16.17
2023-03-21T12:17:53.116Z,16.29
2023-03-21T12:18:53.154Z,16.47
2023-03-21T12:19:53.223Z,16.33
2023-03-21T12:20:53.283Z,16.41
2023-03-21T12:21:54.807Z,16.33
2023-03-21T12:22:53.453Z,16.39
2023-03-21T12:23:53.380Z,16.23
2023-03-21T12:24:53.443Z,16.26
2023-03-21T12:25:53.470Z,16.21
2023-03-21T12:26:53.507Z,16.17
2023-03-21T12:27:53.573Z,16.00
2023-03-21T12:28:53.602Z,15.82
2023-03-21T12:29:53.633Z,15.84
2023-03-21T12:30:53.687Z,15.90
2023-03-21T12:31:53.839Z,15.76
2023-03-21T12:32:53.808Z,15.77
2023-03-21T12:33:53.855Z,15.91
2023-03-21T12:34:53.872Z,15.79
2023-03-21T12:35:53.975Z,15.64
2023-03-21T12:36:53.940Z,15.77
2023-03-21T12:37:55.530Z,15.82
2023-03-21T12:38:53.983Z,15.76
2023-03-21T12:39:54.047Z,15.90
2023-03-21T12:40:54.093Z,15.95
2023-03-21T12:41:54.134Z,16.09
2023-03-21T12:42:54.152Z,16.17
2023-03-21T12:43:55.421Z,16.12
2023-03-21T12:44:54.246Z,15.92
2023-03-21T12:45:54.292Z,15.73
2023-03-21T12:46:54.350Z,15.70
2023-03-21T12:47:54.408Z,15.80
2023-03-21T12:48:54.447Z,15.95
2023-03-21T12:49:55.381Z,16.00
2023-03-21T12:50:54.515Z,16.02
2023-03-21T12:51:54.582Z,16.00
2023-03-21T12:52:54.608Z,16.00
2023-03-21T12:53:54.644Z,15.88
2023-03-21T12:54:54.690Z,15.84
2023-03-21T12:55:54.722Z,15.88
2023-03-21T12:56:54.774Z,15.72
2023-03-21T12:57:57.857Z,15.67
2023-03-21T12:58:54.873Z,15.64
2023-03-21T12:59:54.955Z,15.68
2023-03-21T13:00:55.021Z,15.73
2023-03-21T13:01:55.025Z,15.76
2023-03-21T13:02:55.054Z,15.73
2023-03-21T13:03:55.128Z,15.75
2023-03-21T13:04:55.182Z,15.80
2023-03-21T13:05:55.226Z,15.76
2023-03-21T13:06:55.273Z,15.76
2023-03-21T13:07:55.311Z,15.75
2023-03-21T13:08:55.343Z,15.65
2023-03-21T13:09:55.385Z,15.91
2023-03-21T13:10:55.423Z,16.02
2023-03-21T13:11:55.482Z,16.10
2023-03-21T13:12:55.492Z,16.17
2023-03-21T13:13:55.547Z,16.12
2023-03-21T13:14:55.562Z,16.01
2023-03-21T13:15:55.660Z,16.00
2023-03-21T13:16:55.622Z,16.01
2023-03-21T13:17:55.655Z,16.00
2023-03-21T13:18:55.682Z,15.90
2023-03-21T13:19:55.778Z,15.84
2023-03-21T13:20:55.785Z,15.79
2023-03-21T13:21:55.845Z,15.84
2023-03-21T13:22:55.890Z,15.91
2023-03-21T13:23:55.934Z,15.97
2023-03-21T13:24:55.973Z,16.08
2023-03-21T13:25:56.013Z,16.21
2023-03-21T13:26:56.057Z,16.21
2023-03-21T13:27:56.104Z,16.12
2023-03-21T13:28:56.133Z,16.10
2023-03-21T13:29:56.208Z,16.23
2023-03-21T13:30:56.188Z,16.16
2023-03-21T13:31:57.546Z,16.17
2023-03-21T13:32:56.266Z,16.24
2023-03-21T13:33:56.314Z,16.17
2023-03-21T13:34:56.349Z,16.23
2023-03-21T13:35:56.467Z,16.28
2023-03-21T13:36:56.400Z,16.04
2023-03-21T13:37:56.428Z,15.94
2023-03-21T13:38:56.477Z,15.86
2023-03-21T13:39:56.535Z,15.79
2023-03-21T13:40:56.576Z,15.80
2023-03-21T13:41:56.611Z,15.76
2023-03-21T13:42:56.653Z,15.92
2023-03-21T13:43:56.703Z,16.05
2023-03-21T13:44:56.737Z,16.21
2023-03-21T13:45:56.867Z,16.28
2023-03-21T13:46:56.845Z,16.33
2023-03-21T13:47:56.927Z,16.36
2023-03-21T13:48:59.124Z,16.43
2023-03-21T13:49:56.963Z,16.29
2023-03-21T13:50:58.233Z,16.31
2023-03-21T13:51:57.083Z,16.49
2023-03-21T13:52:57.133Z,16.35
2023-03-21T13:53:57.184Z,16.41
2023-03-21T13:54:57.205Z,16.50
2023-03-21T13:55:57.244Z,16.36
2023-03-21T13:56:58.080Z,16.39
2023-03-21T13:57:57.406Z,16.35
2023-03-21T13:58:57.414Z,16.38
2023-03-21T13:59:57.469Z,16.54
2023-03-21T14:00:57.529Z,16.35
2023-03-21T14:01:57.568Z,16.33
2023-03-21T14:02:57.614Z,16.32
2023-03-21T14:03:57.672Z,16.33
2023-03-21T14:05:05.651Z,16.33
2023-03-21T14:05:57.742Z,16.32
2023-03-21T14:06:57.730Z,16.23
2023-03-21T14:08:06.008Z,15.98
2023-03-21T14:08:57.757Z,15.88
2023-03-21T14:09:57.805Z,15.94
2023-03-21T14:10:57.821Z,15.95
2023-03-21T14:12:03.866Z,15.97
2023-03-21T14:12:57.993Z,16.16
2023-03-21T14:13:57.933Z,16.15
2023-03-21T14:15:06.757Z,16.02
2023-03-21T14:15:58.361Z,16.15
2023-03-21T14:16:58.060Z,16.24
2023-03-21T14:17:58.103Z,16.26
2023-03-21T14:18:58.164Z,16.32
2023-03-21T14:19:58.179Z,16.26
2023-03-21T14:20:58.226Z,16.15
2023-03-21T14:21:58.304Z,16.15
2023-03-21T14:22:58.318Z,16.10
2023-03-21T14:23:58.362Z,16.09
2023-03-21T14:24:58.410Z,16.05
2023-03-21T14:25:58.445Z,16.10
2023-03-21T14:26:58.486Z,16.08
2023-03-21T14:27:58.529Z,15.98
2023-03-21T14:28:58.544Z,15.98
2023-03-21T14:29:58.578Z,15.91
2023-03-21T14:30:58.626Z,15.88
2023-03-21T14:31:58.709Z,15.82
2023-03-21T14:32:58.770Z,15.88
2023-03-21T14:33:58.817Z,15.92
2023-03-21T14:34:58.859Z,15.97
2023-03-21T14:35:58.908Z,15.98
2023-03-21T14:36:59.380Z,16.04
2023-03-21T14:37:58.949Z,16.13
2023-03-21T14:38:58.980Z,16.15
2023-03-21T14:40:00.472Z,16.12
2023-03-21T14:40:59.017Z,16.02
2023-03-21T14:41:59.038Z,16.09
2023-03-21T14:42:59.071Z,16.05
2023-03-21T14:43:59.101Z,15.95
2023-03-21T14:44:59.150Z,15.91
2023-03-21T14:45:59.204Z,15.94
2023-03-21T14:46:59.258Z,16.02
2023-03-21T14:47:59.361Z,16.12
2023-03-21T14:48:59.310Z,16.13
2023-03-21T14:49:59.352Z,16.28
2023-03-21T14:50:59.379Z,16.32
2023-03-21T14:51:59.428Z,16.17
2023-03-21T14:52:59.477Z,16.21
2023-03-21T14:53:59.501Z,16.15
2023-03-21T14:54:59.567Z,16.09
2023-03-21T14:55:59.618Z,16.08
2023-03-21T14:56:59.644Z,15.97
2023-03-21T14:57:59.681Z,16.01
2023-03-21T14:58:59.720Z,16.17
2023-03-21T14:59:59.780Z,16.17
2023-03-21T15:00:59.811Z,16.16
2023-03-21T15:01:59.915Z,16.21
2023-03-21T15:02:59.934Z,16.33
2023-03-21T15:04:00.575Z,16.31
2023-03-21T15:05:00.042Z,16.21
2023-03-21T15:06:00.125Z,16.16
2023-03-21T15:07:00.153Z,16.00
2023-03-21T15:08:00.205Z,16.00
2023-03-21T15:09:00.255Z,15.97
2023-03-21T15:10:00.272Z,15.94
2023-03-21T15:11:08.310Z,16.04
2023-03-21T15:12:00.333Z,16.02
2023-03-21T15:13:00.361Z,15.88
2023-03-21T15:14:00.415Z,15.86
2023-03-21T15:15:00.464Z,15.92
2023-03-21T15:16:00.533Z,16.00
2023-03-21T15:17:00.584Z,15.98
2023-03-21T15:18:00.622Z,16.01
2023-03-21T15:19:00.664Z,15.92
2023-03-21T15:20:00.720Z,15.90
2023-03-21T15:21:00.733Z,15.88
2023-03-21T15:22:00.772Z,15.95
2023-03-21T15:23:00.814Z,16.01
2023-03-21T15:24:00.852Z,16.04
2023-03-21T15:25:00.893Z,15.98
2023-03-21T15:26:00.934Z,16.15
2023-03-21T15:27:00.976Z,16.21
2023-03-21T15:28:01.019Z,16.20
2023-03-21T15:29:01.049Z,16.31
2023-03-21T15:30:01.073Z,16.29
2023-03-21T15:31:01.146Z,16.29
2023-03-21T15:32:01.114Z,16.36
2023-03-21T15:33:01.141Z,16.41
2023-03-21T15:34:01.170Z,16.41
2023-03-21T15:35:01.193Z,16.38
2023-03-21T15:36:01.330Z,16.35
2023-03-21T15:37:01.280Z,16.38
2023-03-21T15:38:01.305Z,16.28
2023-03-21T15:39:01.343Z,16.20
2023-03-21T15:40:01.380Z,16.24
2023-03-21T15:41:01.426Z,16.24
2023-03-21T15:42:01.469Z,16.21
2023-03-21T15:43:01.504Z,16.10
2023-03-21T15:44:01.572Z,16.00
2023-03-21T15:45:01.606Z,16.10
2023-03-21T15:46:01.660Z,16.02
2023-03-21T15:47:01.754Z,16.12
2023-03-21T15:48:01.771Z,16.17
2023-03-21T15:49:01.842Z,16.23
2023-03-21T15:50:01.893Z,16.28
2023-03-21T15:51:01.993Z,16.29
2023-03-21T15:52:01.922Z,16.29
2023-03-21T15:53:01.954Z,16.35
2023-03-21T15:54:01.996Z,16.26
2023-03-21T15:55:02.032Z,16.31
2023-03-21T15:56:02.092Z,16.38
2023-03-21T15:57:02.133Z,16.39
2023-03-21T15:58:02.162Z,16.36
2023-03-21T15:59:02.207Z,16.29
2023-03-21T16:00:02.234Z,16.21
2023-03-21T16:01:02.367Z,16.23
2023-03-21T16:02:02.391Z,16.21
2023-03-21T16:03:02.373Z,16.20
2023-03-21T16:04:02.416Z,16.15
2023-03-21T16:05:02.483Z,16.10
2023-03-21T16:06:02.493Z,16.00
2023-03-21T16:07:02.564Z,16.05
2023-03-21T16:08:02.594Z,16.04
2023-03-21T16:09:02.624Z,16.05
2023-03-21T16:10:02.653Z,16.10
2023-03-21T16:11:02.693Z,16.09
2023-03-21T16:12:02.745Z,16.09
2023-03-21T16:13:02.778Z,16.08
2023-03-21T16:14:02.807Z,16.09
2023-03-21T16:15:02.853Z,16.09
2023-03-21T16:16:02.898Z,16.08
2023-03-21T16:17:02.954Z,16.08
2023-03-21T16:18:02.965Z,16.02
2023-03-21T16:19:03.005Z,15.88
2023-03-21T16:20:03.114Z,15.92
2023-03-21T16:21:03.104Z,15.90
2023-03-21T16:22:03.197Z,15.90
2023-03-21T16:23:03.170Z,15.83
2023-03-21T16:24:03.233Z,15.84
2023-03-21T16:25:03.287Z,15.80
2023-03-21T16:26:03.335Z,15.82
2023-03-21T16:27:03.416Z,15.82
2023-03-21T16:28:03.478Z,15.77
2023-03-21T16:29:03.538Z,15.79
2023-03-21T16:30:03.586Z,15.77
2023-03-21T16:31:03.617Z,15.75
2023-03-21T16:32:03.708Z,15.72
2023-03-21T16:33:03.728Z,15.77
2023-03-21T16:34:03.756Z,15.70
2023-03-21T16:35:03.780Z,15.55
2023-03-21T16:36:03.880Z,15.52
2023-03-21T16:37:03.830Z,15.46
2023-03-21T16:38:03.868Z,15.43
2023-03-21T16:39:03.908Z,15.51
2023-03-21T16:40:03.984Z,15.40
2023-03-21T16:41:04.027Z,15.42
2023-03-21T16:42:04.028Z,15.44
2023-03-21T16:43:04.109Z,15.44
2023-03-21T16:44:04.145Z,15.40
2023-03-21T16:45:04.202Z,15.36
2023-03-21T16:46:04.315Z,15.24
2023-03-21T16:47:04.303Z,15.21
2023-03-21T16:48:04.433Z,15.21
2023-03-21T16:49:04.399Z,15.15
2023-03-21T16:50:04.467Z,15.11
2023-03-21T16:51:04.517Z,15.11
2023-03-21T16:52:04.557Z,15.10
2023-03-21T16:53:04.622Z,15.04
2023-03-21T16:54:04.702Z,15.02
2023-03-21T16:55:04.747Z,15.04
2023-03-21T16:56:04.798Z,14.99
2023-03-21T16:57:04.867Z,15.02
2023-03-21T16:58:04.890Z,15.04
2023-03-21T16:59:04.961Z,15.03
2023-03-21T17:00:05.009Z,14.89
2023-03-21T17:01:05.099Z,14.86
2023-03-21T17:02:05.131Z,14.88
2023-03-21T17:03:05.240Z,14.85
2023-03-21T17:04:05.201Z,14.82
2023-03-21T17:05:05.261Z,14.81
2023-03-21T17:06:05.322Z,14.86
2023-03-21T17:07:05.378Z,14.82
2023-03-21T17:08:05.415Z,14.81
2023-03-21T17:09:05.485Z,14.78
2023-03-21T17:10:05.462Z,14.72
2023-03-21T17:11:05.532Z,14.72
2023-03-21T17:12:05.580Z,14.65
2023-03-21T17:13:05.649Z,14.68
2023-03-21T17:14:05.723Z,14.63
2023-03-21T17:15:05.792Z,14.53
2023-03-21T17:16:05.842Z,14.41
2023-03-21T17:17:05.977Z,14.41
2023-03-21T17:18:06.006Z,14.40
2023-03-21T17:19:06.061Z,14.33
2023-03-21T17:20:06.110Z,14.26
2023-03-21T17:21:06.152Z,14.23
2023-03-21T17:22:06.217Z,14.18
2023-03-21T17:23:06.271Z,14.11
2023-03-21T17:24:06.322Z,14.07
2023-03-21T17:25:06.414Z,13.99
2023-03-21T17:26:06.373Z,13.90
2023-03-21T17:27:06.458Z,13.89
2023-03-21T17:28:06.495Z,13.79
2023-03-21T17:29:06.564Z,13.97
2023-03-21T17:30:06.686Z,13.96
2023-03-21T17:31:06.701Z,13.96
2023-03-21T17:32:06.732Z,13.90
2023-03-21T17:33:06.791Z,13.86
2023-03-21T17:34:06.871Z,13.87
2023-03-21T17:35:06.931Z,13.86
2023-03-21T17:36:06.981Z,13.75
2023-03-21T17:37:07.045Z,13.77
2023-03-21T17:38:07.092Z,13.79
2023-03-21T17:39:07.248Z,13.77
2023-03-21T17:40:07.191Z,13.79
2023-03-21T17:41:07.249Z,13.74
2023-03-21T17:42:07.220Z,13.75
2023-03-21T17:43:07.290Z,13.79
2023-03-21T17:44:07.414Z,13.75
2023-03-21T17:45:07.372Z,13.72
2023-03-21T17:46:07.436Z,13.68
2023-03-21T17:47:07.492Z,13.71
2023-03-21T17:48:07.580Z,13.68
2023-03-21T17:49:07.651Z,13.72
2023-03-21T17:50:07.719Z,13.71
2023-03-21T17:51:07.782Z,13.68
2023-03-21T17:52:07.840Z,13.62
2023-03-21T17:53:07.909Z,13.37
2023-03-21T17:54:07.985Z,13.33
2023-03-21T17:55:08.073Z,13.28
2023-03-21T17:56:08.134Z,13.27
2023-03-21T17:57:08.195Z,13.33
2023-03-21T17:58:08.246Z,13.27
2023-03-21T17:59:08.334Z,13.20
2023-03-21T18:00:08.412Z,13.16
2023-03-21T18:01:08.470Z,13.04
2023-03-21T18:02:08.545Z,13.09